Time;durP1;ratioP1;P1;durP2;ratioP2;P2;SDS_P1;SDS_P2;PMS_P1;PMS_P2;Temp;Humidity;BMP_temperature;BMP_pressure;BME280_temperature;BME280_humidity;BME280_pressure;Samples;Min_cycle;Max_cycle;Signal;HPM_P1;HPM_P2
2021/12/04 00:02:06;;;;;;;37.38;33.92;;;;;;;20.14;43.06;99802.22;4940875;29;20033;-80
2021/12/04 00:04:36;;;;;;;38.50;36.15;;;;;;;20.15;43.26;99797.53;4940081;29;20170;-80
2021/12/04 00:07:03;;;;;;;35.90;33.63;;;;;;;20.15;43.25;99803.81;4957401;29;20078;-81
2021/12/04 00:09:29;;;;;;;34.75;32.95;;;;;;;20.15;43.40;99787.34;4955795;29;20034;-80
2021/12/04 00:11:58;;;;;;;35.53;33.53;;;;;;;20.15;43.56;99787.34;4940574;29;20035;-80
2021/12/04 00:14:24;;;;;;;;;;;;;;;20.15;43.21;99789.28;4940838;29;20068;-80
2021/12/04 00:16:49;;;;;;;33.97;32.28;;;;;;;20.14;43.19;99785.75;4940277;29;20006;-80
2021/12/04 00:19:15;;;;;;;35.75;34.05;;;;;;;20.15;43.05;99789.28;4956741;28;20499;-80
2021/12/04 00:21:40;;;;;;;36.58;34.78;;;;;;;20.14;43.17;99783.00;4939731;29;20046;-80
2021/12/04 00:24:06;;;;;;;36.30;34.55;;;;;;;20.13;43.23;99784.13;4957602;29;20118;-80
2021/12/04 00:26:31;;;;;;;36.55;34.75;;;;;;;20.14;43.22;99782.22;4955824;29;20032;-79
2021/12/04 00:28:57;;;;;;;35.40;33.70;;;;;;;20.13;43.27;99772.38;4939988;29;20039;-79
2021/12/04 00:31:22;;;;;;;37.92;36.05;;;;;;;20.14;43.26;99768.50;4940038;29;20107;-80
2021/12/04 00:33:48;;;;;;;36.88;35.05;;;;;;;20.13;43.23;99762.19;4955550;28;20404;-80
2021/12/04 00:50:04;;;;;;;36.72;34.92;;;;;;;20.12;43.55;99754.31;4956296;28;20522;-80
2021/12/04 00:52:29;;;;;;;36.88;35.08;;;;;;;20.11;43.17;99750.78;4939297;29;20085;-80
2021/12/04 00:54:55;;;;;;;36.67;34.45;;;;;;;20.12;43.32;99757.88;4956665;29;20027;-80
2021/12/04 00:57:20;;;;;;;35.40;33.60;;;;;;;20.12;43.49;99757.06;4956496;29;20388;-80
2021/12/04 00:59:46;;;;;;;36.40;34.60;;;;;;;20.11;43.46;99759.00;4939198;29;20089;-80
2021/12/04 01:02:11;;;;;;;37.30;35.50;;;;;;;20.10;43.49;99760.94;4956276;29;20090;-80
2021/12/04 01:04:36;;;;;;;36.22;34.33;;;;;;;20.11;43.47;99761.75;4939571;29;20042;-80
2021/12/04 01:07:02;;;;;;;35.10;33.30;;;;;;;20.10;43.44;99755.44;4955975;29;20110;-80
2021/12/04 01:09:28;;;;;;;35.50;33.70;;;;;;;20.10;43.37;99765.59;4955201;29;20043;-80
2021/12/04 01:11:54;;;;;;;37.00;35.10;;;;;;;20.10;43.42;99765.59;4955047;29;20043;-80
2021/12/04 01:14:26;;;;;;;36.95;34.95;;;;;;;20.09;43.30;99764.81;4955040;29;20031;-80
2021/12/04 01:16:52;;;;;;;37.95;35.90;;;;;;;20.08;43.21;99752.25;4955840;29;20395;-80
2021/12/04 01:19:19;;;;;;;37.65;35.85;;;;;;;20.08;42.94;99755.00;4939062;29;20155;-80
2021/12/04 01:21:45;;;;;;;38.38;36.47;;;;;;;20.09;43.04;99750.31;4956395;29;20038;-80
2021/12/04 01:24:11;;;;;;;38.03;36.13;;;;;;;20.08;43.28;99735.81;4956178;29;20046;-81
2021/12/04 01:26:38;;;;;;;37.80;36.00;;;;;;;20.08;43.22;99740.47;4954706;28;20031;-80
2021/12/04 01:29:03;;;;;;;39.70;37.70;;;;;;;20.07;43.03;99736.91;4955076;28;20033;-80
2021/12/04 01:31:29;;;;;;;38.10;36.30;;;;;;;20.06;42.91;99749.03;4922727;29;20035;-80
2021/12/04 01:33:54;;;;;;;40.10;38.00;;;;;;;20.06;43.17;99750.97;4955756;29;20089;-80
2021/12/04 01:36:19;;;;;;;39.08;37.08;;;;;;;20.05;43.17;99754.84;4938536;29;20133;-80
2021/12/04 01:38:45;;;;;;;41.13;39.13;;;;;;;20.06;42.87;99748.22;4938470;29;20047;-81
2021/12/04 01:41:11;;;;;;;37.97;36.17;;;;;;;20.04;43.07;99745.81;4955405;29;20038;-80
2021/12/04 01:43:37;;;;;;;38.45;36.63;;;;;;;20.05;43.18;99741.13;4954474;29;20035;-79
2021/12/04 01:46:03;;;;;;;39.22;37.38;;;;;;;20.04;42.83;99736.78;4922615;29;20126;-80
2021/12/04 01:48:29;;;;;;;41.13;39.13;;;;;;;20.04;42.98;99734.03;4954357;29;20435;-80
2021/12/04 01:50:55;;;;;;;40.15;38.05;;;;;;;20.03;42.81;99743.38;4953938;29;20085;-79
2021/12/04 01:53:21;;;;;;;38.92;37.03;;;;;;;20.02;42.80;99742.59;4955509;29;20051;-80
2021/12/04 01:55:50;;;;;;;40.55;38.55;;;;;;;20.01;43.07;99741.00;4954960;29;20090;-80
2021/12/04 01:58:15;;;;;;;;;;;;;;;19.99;42.97;99739.72;4955235;29;20035;-80
2021/12/04 02:00:41;;;;;;;38.88;36.78;;;;;;;19.99;42.86;99732.28;4938335;29;19973;-79
2021/12/04 02:03:09;;;;;;;39.63;37.72;;;;;;;19.98;42.76;99732.59;4954151;29;20066;-80
2021/12/04 02:05:38;;;;;;;39.78;37.88;;;;;;;19.99;42.84;99720.53;4938725;29;20528;-80
2021/12/04 02:08:07;;;;;;;38.72;36.92;;;;;;;19.97;42.82;99709.88;4938592;29;20477;-80
2021/12/04 02:10:34;;;;;;;39.28;37.22;;;;;;;19.97;42.65;99703.59;4955361;29;20039;-80
2021/12/04 02:13:00;;;;;;;39.42;37.50;;;;;;;19.96;42.52;99696.50;4955212;28;20034;-80
2021/12/04 02:15:26;;;;;;;38.10;36.30;;;;;;;19.96;42.75;99691.03;4938406;29;20027;-80
2021/12/04 02:17:52;;;;;;;40.03;38.03;;;;;;;19.96;42.56;99688.28;4937987;29;20042;-80
2021/12/04 02:20:24;;;;;;;38.33;36.47;;;;;;;19.94;42.56;99694.09;4955274;29;20070;-80
2021/12/04 02:22:49;;;;;;;38.97;37.03;;;;;;;19.94;42.84;99687.84;4955294;28;20032;-80
2021/12/04 02:25:16;;;;;;;39.10;37.20;;;;;;;19.94;42.84;99688.63;4955245;29;20439;-80
2021/12/04 02:27:43;;;;;;;36.92;35.17;;;;;;;19.92;42.80;99679.94;4939077;29;20070;-80
2021/12/04 02:30:12;;;;;;;37.35;35.50;;;;;;;19.93;42.59;99670.56;4954882;29;20042;-80
2021/12/04 02:32:38;;;;;;;38.33;36.28;;;;;;;19.92;42.64;99663.47;4954946;29;20035;-82
2021/12/04 02:35:06;;;;;;;38.28;36.45;;;;;;;19.92;42.58;99662.69;4954103;28;20063;-80
2021/12/04 02:37:33;;;;;;;38.03;36.22;;;;;;;19.92;42.58;99662.69;4938152;29;20034;-80
2021/12/04 02:39:59;;;;;;;39.45;37.45;;;;;;;19.90;42.65;99660.25;4937796;29;20039;-80
2021/12/04 02:42:29;;;;;;;36.85;35.05;;;;;;;19.90;42.87;99654.78;4956960;28;20031;-80
2021/12/04 02:44:59;;;;;;;38.97;37.03;;;;;;;19.88;42.87;99663.34;4958844;29;20034;-80
2021/12/04 02:47:27;;;;;;;38.65;36.75;;;;;;;19.88;42.46;99671.56;4942291;29;20035;-80
2021/12/04 02:49:53;;;;;;;39.17;37.17;;;;;;;19.88;42.47;99671.56;4941245;29;20396;-79
2021/12/04 02:52:19;;;;;;;38.90;37.10;;;;;;;19.88;42.92;99659.78;4957284;28;20091;-80
2021/12/04 02:54:44;;;;;;;39.05;37.17;;;;;;;19.88;42.49;99668.00;4941668;29;20043;-79
2021/12/04 02:57:12;;;;;;;39.67;37.78;;;;;;;19.87;42.93;99664.47;4957352;29;20487;-80
2021/12/04 02:59:38;;;;;;;37.50;35.50;;;;;;;19.86;42.83;99673.84;4957535;29;20043;-80
2021/12/04 03:02:05;;;;;;;40.40;38.15;;;;;;;19.87;42.56;99660.94;4958458;28;20031;-80
2021/12/04 03:04:32;;;;;;;38.10;36.20;;;;;;;19.85;42.33;99654.97;4941256;29;20043;-80
2021/12/04 03:06:57;;;;;;;38.85;36.95;;;;;;;19.86;42.61;99648.38;4958386;28;20031;-80
2021/12/04 03:09:22;;;;;;;37.28;35.53;;;;;;;19.85;42.64;99649.50;4958180;29;20035;-80
2021/12/04 03:11:48;;;;;;;37.53;35.72;;;;;;;19.84;42.52;99645.16;4941020;29;20039;-79
2021/12/04 03:14:14;;;;;;;37.10;35.30;;;;;;;19.83;42.60;99649.84;4941196;29;20071;-80
2021/12/04 03:16:41;;;;;;;37.85;35.95;;;;;;;19.83;42.62;99651.75;4958323;29;20029;-80
2021/12/04 03:19:07;;;;;;;37.38;35.53;;;;;;;19.83;42.65;99649.03;4941166;29;20031;-80
2021/12/04 03:21:35;;;;;;;36.50;34.75;;;;;;;19.82;42.58;99648.22;4957917;28;20035;-80
2021/12/04 03:24:06;;;;;;;40.70;38.67;;;;;;;19.82;42.66;99642.75;4941594;29;20054;-80
2021/12/04 03:26:32;;;;;;;37.58;35.78;;;;;;;19.81;42.51;99630.19;4957416;29;20035;-81
2021/12/04 03:29:01;;;;;;;38.25;36.35;;;;;;;19.80;42.67;99631.31;4956799;28;20027;-79
2021/12/04 03:42:14;;;;;;;36.90;35.10;;;;;;;19.77;42.52;99623.75;4943254;29;20097;-80
2021/12/04 03:44:40;;;;;;;37.22;35.45;;;;;;;19.77;42.73;99622.97;4941192;29;20375;-80
2021/12/04 03:47:08;;;;;;;39.78;37.78;;;;;;;19.76;42.62;99622.16;4940663;29;20035;-80
2021/12/04 03:49:33;;;;;;;38.05;36.25;;;;;;;19.76;42.44;99619.41;4941390;29;20038;-82
2021/12/04 03:51:58;;;;;;;39.20;37.30;;;;;;;19.76;42.49;99627.63;4957927;28;20146;-80
2021/12/04 03:54:24;;;;;;;38.35;36.55;;;;;;;19.77;42.76;99628.44;4957639;29;20166;-80
2021/12/04 03:57:02;;;;;;;38.90;37.00;;;;;;;19.75;42.81;99617.78;4940359;29;20368;-79
2021/12/04 03:59:28;;;;;;;;;;;;;;;19.73;42.55;99616.53;4942783;29;20035;-80
2021/12/04 04:01:53;;;;;;;37.83;35.97;;;;;;;19.73;42.39;99619.25;4940063;29;19914;-80
2021/12/04 04:04:18;;;;;;;37.97;36.17;;;;;;;19.72;42.63;99610.25;4956222;29;20468;-80
2021/12/04 04:06:44;;;;;;;38.67;36.80;;;;;;;19.72;42.69;99606.72;4957366;28;20381;-80
2021/12/04 04:09:09;;;;;;;40.00;38.00;;;;;;;19.72;42.57;99595.75;4940311;29;20057;-80
2021/12/04 04:11:36;;;;;;;40.00;38.10;;;;;;;19.72;42.40;99595.75;4940075;29;20035;-80
2021/12/04 04:14:03;;;;;;;40.72;38.72;;;;;;;19.71;42.42;99586.75;4957473;29;20078;-80
2021/12/04 04:16:29;;;;;;;38.65;36.75;;;;;;;19.71;42.54;99591.41;4957248;28;20043;-80
2021/12/04 04:18:54;;;;;;;38.72;36.70;;;;;;;19.71;42.66;99588.69;4956112;29;20526;-80
2021/12/04 04:21:19;;;;;;;39.15;37.15;;;;;;;19.71;42.26;99585.94;4957110;29;20039;-80
2021/12/04 04:23:45;;;;;;;38.42;36.63;;;;;;;19.71;42.40;99585.94;4940208;29;20062;-79
2021/12/04 04:26:10;;;;;;;39.17;37.28;;;;;;;19.70;42.42;99579.63;4955709;28;20129;-80
2021/12/04 04:28:36;;;;;;;39.28;37.38;;;;;;;19.70;42.70;99576.09;4939850;29;20035;-80
2021/12/04 04:31:01;;;;;;;37.90;36.10;;;;;;;19.69;42.28;99578.03;4955602;28;20094;-79
2021/12/04 04:33:27;;;;;;;38.03;36.22;;;;;;;19.69;42.48;99578.03;4939759;29;20041;-80
2021/12/04 04:36:08;;;;;;;37.97;36.17;;;;;;;19.69;42.47;99579.97;4955812;29;20460;-80
2021/12/04 05:13:33;;;;;;;37.05;35.35;;;;;;;19.60;42.31;99549.84;4939007;29;20039;-80
2021/12/04 05:16:10;;;;;;;37.30;35.53;;;;;;;19.60;42.55;99549.84;4938802;29;20047;-80
2021/12/04 05:18:38;;;;;;;38.75;36.95;;;;;;;19.60;42.51;99544.38;4940837;29;20043;-80
2021/12/04 05:21:06;;;;;;;38.10;36.10;;;;;;;19.59;42.43;99540.84;4939175;29;20122;-80
2021/12/04 05:23:38;;;;;;;36.40;34.70;;;;;;;19.58;42.25;99547.47;4956059;29;20122;-80
2021/12/04 05:26:06;;;;;;;39.85;37.88;;;;;;;19.58;42.53;99552.94;4954259;29;20027;-79
2021/12/04 05:28:32;;;;;;;38.72;36.83;;;;;;;19.58;42.32;99557.59;4956267;28;20051;-80
2021/12/04 05:30:57;;;;;;;38.60;36.80;;;;;;;19.58;42.16;99566.66;4954622;28;20519;-79
2021/12/04 05:33:24;;;;;;;39.00;37.15;;;;;;;19.58;42.33;99563.91;4954610;29;20070;-80
2021/12/04 05:35:50;;;;;;;37.95;36.15;;;;;;;19.56;42.39;99557.94;4955573;29;20403;-80
2021/12/04 05:38:17;;;;;;;39.95;37.95;;;;;;;19.58;42.42;99554.84;4955774;29;20472;-79
2021/12/04 05:40:43;;;;;;;40.42;38.53;;;;;;;19.56;42.50;99546.19;4955374;28;20510;-79
2021/12/04 05:43:09;;;;;;;39.45;37.47;;;;;;;19.56;42.45;99541.50;4954369;29;20042;-79
2021/12/04 05:45:39;;;;;;;38.92;37.13;;;;;;;19.55;42.40;99541.84;4954407;29;20031;-79
2021/12/04 05:48:51;;;;;;;40.63;38.65;;;;;;;19.54;42.44;99543.78;4956083;29;20035;-79
2021/12/04 05:53:28;;;;;;;38.55;36.75;;;;;;;19.54;42.55;99541.03;4955475;28;20114;-79
2021/12/04 05:55:55;;;;;;;38.70;36.83;;;;;;;19.53;42.35;99539.44;4954078;29;20046;-79
2021/12/04 05:58:23;;;;;;;37.80;36.00;;;;;;;19.54;42.56;99526.56;4954894;29;20047;-79
2021/12/04 06:00:49;;;;;;;38.60;36.70;;;;;;;19.52;42.46;99529.59;4955538;29;20035;-80
2021/12/04 06:03:14;;;;;;;38.65;36.75;;;;;;;19.51;42.18;99525.28;4938244;29;20114;-79
2021/12/04 06:05:40;;;;;;;38.58;36.78;;;;;;;19.52;42.28;99523.34;4938182;29;20114;-80
2021/12/04 06:08:05;;;;;;;40.13;38.15;;;;;;;19.51;42.49;99521.75;4955825;29;20031;-79
2021/12/04 06:10:31;;;;;;;37.67;35.78;;;;;;;19.50;42.21;99523.66;4938210;29;20039;-80
2021/12/04 06:12:56;;;;;;;38.28;36.40;;;;;;;19.49;42.54;99527.53;4937927;29;20090;-80
2021/12/04 06:15:21;;;;;;;37.92;36.13;;;;;;;19.49;42.16;99524.81;4954304;28;20146;-79
2021/12/04 06:17:50;;;;;;;39.53;37.65;;;;;;;19.50;42.11;99533.81;4959356;29;20038;-79
2021/12/04 06:22:59;;;;;;;37.92;36.13;;;;;;;19.47;42.33;99535.28;4959235;29;20129;-80
2021/12/04 06:25:26;;;;;;;37.97;36.17;;;;;;;19.47;42.39;99521.59;4942105;29;20082;-80
2021/12/04 06:27:53;;;;;;;38.40;36.60;;;;;;;19.46;42.35;99531.75;4959249;29;20038;-80
2021/12/04 06:30:20;;;;;;;40.70;38.70;;;;;;;19.46;42.30;99531.75;4958419;29;20039;-79
2021/12/04 06:32:48;;;;;;;38.85;36.90;;;;;;;19.45;42.47;99527.41;4959577;29;20094;-79
2021/12/04 06:35:14;;;;;;;38.15;36.25;;;;;;;19.45;42.30;99532.88;4959071;28;20130;-79
2021/12/04 06:37:40;;;;;;;39.10;37.22;;;;;;;19.44;42.40;99539.47;4941469;29;20031;-79
2021/12/04 06:40:08;;;;;;;38.38;36.38;;;;;;;19.45;42.26;99523.84;4957787;29;20122;-78
2021/12/04 06:42:33;;;;;;;37.35;35.63;;;;;;;19.45;42.50;99532.06;4958860;28;20095;-80
2021/12/04 06:44:59;;;;;;;38.35;36.55;;;;;;;19.44;42.06;99541.44;4958361;29;20043;-80
2021/12/04 06:47:24;;;;;;;38.40;36.50;;;;;;;19.43;42.50;99540.63;4941668;29;20486;-79
2021/12/04 06:49:53;;;;;;;37.95;36.05;;;;;;;19.43;42.38;99535.16;4957582;29;20432;-79
2021/12/04 06:52:26;;;;;;;38.15;36.25;;;;;;;19.42;42.32;99536.25;4958433;29;20054;-80
2021/12/04 06:55:02;;;;;;;37.65;35.85;;;;;;;19.41;42.50;99534.69;4957491;29;20044;-79
2021/12/04 06:57:30;;;;;;;36.33;34.55;;;;;;;19.40;42.29;99538.56;4958379;29;20428;-80
2021/12/04 06:59:56;;;;;;;36.65;34.85;;;;;;;19.41;42.12;99533.88;4957386;28;20035;-81
2021/12/04 07:02:22;;;;;;;39.28;37.17;;;;;;;19.40;42.28;99522.13;4957270;28;20039;-79
2021/12/04 07:04:48;;;;;;;38.90;37.10;;;;;;;19.39;42.20;99523.25;4958592;29;20039;-80
2021/12/04 07:07:14;;;;;;;39.17;37.28;;;;;;;19.39;42.21;99531.47;4941297;29;20126;-80
2021/12/04 07:09:41;;;;;;;37.65;35.85;;;;;;;19.40;42.58;99541.28;4957505;29;20125;-80
2021/12/04 07:12:08;;;;;;;37.33;35.58;;;;;;;19.38;42.35;99532.59;4941336;29;20043;-79
2021/12/04 07:14:34;;;;;;;37.45;35.65;;;;;;;19.39;42.34;99533.41;4958258;29;20369;-80
2021/12/04 07:17:02;;;;;;;37.30;35.40;;;;;;;19.37;42.55;99533.72;4941498;29;20042;-80
2021/12/04 07:19:28;;;;;;;38.35;36.45;;;;;;;19.37;42.45;99533.72;4958247;29;20035;-80
2021/12/04 07:21:54;;;;;;;38.35;36.55;;;;;;;19.37;42.18;99530.19;4956936;28;20041;-80
2021/12/04 07:24:20;;;;;;;38.30;36.40;;;;;;;19.37;42.36;99524.72;4940785;29;20122;-79
2021/12/04 07:26:46;;;;;;;36.15;34.45;;;;;;;19.36;42.49;99529.38;4957924;28;20038;-80
2021/12/04 07:29:11;;;;;;;37.80;35.97;;;;;;;19.36;42.48;99525.84;4940228;29;20039;-79
2021/12/04 07:31:37;;;;;;;37.13;35.40;;;;;;;19.35;42.21;99519.59;4956869;29;20094;-80
2021/12/04 07:34:04;;;;;;;38.08;36.28;;;;;;;19.34;42.46;99517.97;4958342;29;20032;-80
2021/12/04 07:36:29;;;;;;;38.85;36.88;;;;;;;19.35;42.55;99524.22;4940969;29;20042;-79
2021/12/04 07:38:55;;;;;;;37.88;36.08;;;;;;;19.35;42.35;99521.50;4957727;29;20035;-80
2021/12/04 07:41:21;;;;;;;39.47;37.50;;;;;;;19.34;42.46;99519.91;4956495;29;20067;-80
2021/12/04 07:43:48;;;;;;;38.70;36.85;;;;;;;19.35;42.36;99518.75;4940715;29;20035;-80
2021/12/04 07:46:14;;;;;;;38.08;36.22;;;;;;;19.34;42.14;99517.97;4957737;28;20031;-79
2021/12/04 07:48:39;;;;;;;39.33;37.42;;;;;;;19.33;42.38;99518.31;4957681;28;20459;-79
2021/12/04 07:51:04;;;;;;;39.55;37.65;;;;;;;19.32;42.52;99517.47;4957375;29;20134;-79
2021/12/04 07:53:31;;;;;;;38.90;37.03;;;;;;;19.33;42.39;99510.09;4940920;29;20122;-79
2021/12/04 07:55:58;;;;;;;40.78;38.67;;;;;;;19.32;42.37;99508.47;4940400;29;20460;-80
2021/12/04 07:58:23;;;;;;;39.50;37.60;;;;;;;19.31;42.35;99502.19;4940300;29;20035;-80
2021/12/04 08:00:49;;;;;;;36.97;35.22;;;;;;;19.32;42.53;99492.03;4940761;29;20035;-81
2021/12/04 08:03:15;;;;;;;37.03;35.22;;;;;;;19.30;42.59;99495.09;4940219;29;20491;-79
2021/12/04 08:05:41;;;;;;;37.33;35.53;;;;;;;19.30;42.46;99489.63;4956190;28;20491;-80
2021/12/04 08:08:06;;;;;;;38.08;36.28;;;;;;;19.30;42.44;99492.38;4940591;29;20041;-80
2021/12/04 08:10:33;;;;;;;36.85;35.15;;;;;;;19.30;42.39;99486.09;4955752;28;20035;-80
2021/12/04 08:13:01;;;;;;;38.75;36.85;;;;;;;19.29;42.53;99479.81;4957594;29;20098;-77
2021/12/04 08:15:27;;;;;;;40.08;38.00;;;;;;;19.28;42.42;99464.53;4957692;29;20107;-78
2021/12/04 08:17:53;;;;;;;39.00;37.13;;;;;;;19.29;42.45;99471.59;4955878;28;20123;-80
2021/12/04 08:20:20;;;;;;;39.35;37.35;;;;;;;19.28;42.50;99464.53;4939878;29;20502;-78
2021/12/04 08:22:46;;;;;;;39.22;37.22;;;;;;;19.29;42.47;99468.06;4940061;29;20031;-78
2021/12/04 08:25:15;;;;;;;38.13;36.33;;;;;;;19.28;42.43;99453.59;4957081;28;20456;-78
2021/12/04 08:27:41;;;;;;;37.80;36.00;;;;;;;19.28;42.62;99452.75;4956280;28;20031;-78
2021/12/04 08:30:10;;;;;;;37.80;35.90;;;;;;;19.28;42.43;99439.91;4939948;29;20039;-78
2021/12/04 08:32:36;;;;;;;37.97;36.15;;;;;;;19.28;42.39;99445.38;4955305;29;20038;-78
2021/12/04 08:35:02;;;;;;;37.17;35.38;;;;;;;19.28;42.40;99447.28;4955667;29;20031;-79
2021/12/04 08:37:29;;;;;;;39.60;37.67;;;;;;;19.27;42.42;99445.69;4939808;29;20045;-80
2021/12/04 08:39:54;;;;;;;38.08;36.17;;;;;;;19.26;42.42;99442.16;4956737;28;20035;-79
2021/12/04 08:42:20;;;;;;;38.92;36.92;;;;;;;19.25;42.30;99451.50;4957099;29;20031;-79
2021/12/04 08:44:47;;;;;;;38.00;36.17;;;;;;;19.26;42.35;99450.38;4955699;29;20443;-79
2021/12/04 08:47:13;;;;;;;37.25;35.45;;;;;;;19.25;42.49;99446.03;4939729;29;20035;-80
2021/12/04 08:49:39;;;;;;;37.45;35.65;;;;;;;19.24;42.43;99447.16;4956021;28;20131;-80
2021/12/04 08:52:05;;;;;;;37.55;35.75;;;;;;;19.24;42.38;99447.16;4939317;29;20051;-81
2021/12/04 08:54:31;;;;;;;38.53;36.50;;;;;;;19.23;42.32;99453.78;4955628;29;20567;-80
2021/12/04 08:56:56;;;;;;;38.75;36.85;;;;;;;19.23;42.41;99453.78;4939914;29;20051;-80
2021/12/04 08:59:22;;;;;;;40.35;38.35;;;;;;;19.23;42.37;99443.63;4955087;29;20039;-80
2021/12/04 09:01:48;;;;;;;37.42;35.63;;;;;;;19.23;42.49;99442.84;4923820;29;20034;-79
2021/12/04 09:04:16;;;;;;;37.25;35.45;;;;;;;19.23;41.97;99451.03;4939075;29;20388;-80
2021/12/04 09:06:42;;;;;;;38.00;36.10;;;;;;;19.22;42.19;99438.47;4956265;29;20065;-80
2021/12/04 09:09:11;;;;;;;37.97;36.15;;;;;;;19.22;42.50;99430.25;4954969;28;20126;-80
2021/12/04 09:11:45;;;;;;;38.00;36.10;;;;;;;19.21;42.35;99432.22;4954898;29;20454;-80
2021/12/04 09:14:12;;;;;;;38.17;36.13;;;;;;;19.21;42.18;99440.41;4955700;29;20033;-79
2021/12/04 09:16:38;;;;;;;36.97;35.17;;;;;;;19.20;42.38;99429.78;4954930;28;20035;-79
2021/12/04 09:19:04;;;;;;;37.25;35.35;;;;;;;19.20;42.39;99435.25;4955292;28;20051;-80
2021/12/04 09:21:30;;;;;;;38.70;36.70;;;;;;;19.19;42.34;99436.41;4954875;28;20028;-80
2021/12/04 09:24:14;;;;;;;37.83;35.95;;;;;;;19.20;42.37;99427.88;4939142;29;20035;-80
2021/12/04 09:26:53;;;;;;;37.55;35.75;;;;;;;19.19;42.34;99428.19;4956436;29;20031;-80
2021/12/04 10:04:47;;;;;;;34.55;32.53;;;;;;;19.18;43.64;99407.44;4955488;29;20043;-81
2021/12/04 10:34:13;;;;;;;36.45;34.05;;;;;;;19.23;43.25;99366.97;4955430;29;20050;-85
2021/12/04 10:36:40;;;;;;;37.25;34.92;;;;;;;19.25;43.42;99361.16;4937656;29;20039;-85
2021/12/04 10:39:08;;;;;;;34.95;33.00;;;;;;;19.26;43.45;99357.28;4939086;29;20031;-83
2021/12/04 10:41:41;;;;;;;35.83;33.70;;;;;;;19.28;43.28;99348.72;4957744;29;20478;-84
2021/12/04 10:44:20;;;;;;;36.92;34.50;;;;;;;19.31;43.96;99353.56;4958055;29;20023;-82
2021/12/04 10:47:05;;;;;;;38.42;35.95;;;;;;;19.33;44.52;99345.81;4957040;29;20038;-82
2021/12/04 10:49:41;;;;;;;37.10;34.83;;;;;;;19.36;44.37;99348.69;4954753;29;20031;-80
2021/12/04 10:52:49;;;;;;;36.53;34.42;;;;;;;19.39;44.36;99333.50;4953829;29;20055;-81
2021/12/04 11:06:33;;;;;;;37.65;35.35;;;;;;;19.49;43.68;99313.13;4959826;29;20122;-82
2021/12/04 11:39:55;;;;;;;36.55;34.45;;;;;;;19.66;43.84;99294.56;4957757;28;20043;-79
2021/12/04 11:42:34;;;;;;;36.35;34.30;;;;;;;19.69;43.71;99290.38;4956478;29;20082;-80
2021/12/04 11:45:14;;;;;;;37.92;35.83;;;;;;;19.71;43.71;99282.63;4957763;29;20031;-80
2021/12/04 11:47:43;;;;;;;38.55;36.28;;;;;;;19.73;43.71;99277.63;4957643;29;20031;-79
2021/12/04 11:50:18;;;;;;;38.30;36.28;;;;;;;19.76;43.87;99273.41;4956421;29;20027;-79
2021/12/04 11:52:51;;;;;;;38.15;36.05;;;;;;;19.77;43.49;99266.78;4955752;29;20075;-80
2021/12/04 11:55:20;;;;;;;37.33;35.33;;;;;;;19.78;43.57;99258.22;4957548;29;20031;-80
2021/12/04 11:57:47;;;;;;;38.30;36.10;;;;;;;19.81;43.42;99263.03;4957273;28;20070;-79
2021/12/04 12:00:29;;;;;;;38.50;36.50;;;;;;;19.82;43.57;99256.38;4956267;28;20033;-77
2021/12/04 12:03:16;;;;;;;39.15;36.85;;;;;;;19.83;43.37;99255.25;4940774;29;20049;-79
2021/12/04 12:05:52;;;;;;;38.88;36.67;;;;;;;19.85;43.03;99263.13;4957261;29;20348;-80
2021/12/04 12:08:27;;;;;;;38.40;36.40;;;;;;;19.87;43.33;99258.09;4957475;29;20448;-81
2021/12/04 12:10:58;;;;;;;39.95;37.78;;;;;;;19.86;43.39;99260.06;4956596;29;20068;-81
2021/12/04 12:13:28;;;;;;;38.38;36.30;;;;;;;19.88;43.26;99260.53;4957277;28;20094;-81
2021/12/04 12:16:09;;;;;;;38.10;36.10;;;;;;;19.91;43.20;99266.44;4956987;29;20027;-81
2021/12/04 12:18:50;;;;;;;39.28;37.10;;;;;;;19.92;42.91;99268.84;4956974;29;20114;-80
2021/12/04 12:21:20;;;;;;;38.83;36.90;;;;;;;19.92;43.36;99265.31;4956447;29;20441;-81
2021/12/04 12:32:25;;;;;;;39.72;37.63;;;;;;;19.95;43.31;99261.88;4957410;29;20480;-80
2021/12/04 12:37:28;;;;;;;;;;;;;;;19.94;42.93;99260.28;4940424;29;20145;-81
2021/12/04 12:40:00;;;;;;;38.28;36.28;;;;;;;19.93;42.97;99256.72;4957560;29;19911;-82
2021/12/04 12:42:37;;;;;;;37.80;35.83;;;;;;;19.95;42.97;99259.16;4955781;29;20027;-81
2021/12/04 12:45:22;;;;;;;38.42;36.30;;;;;;;19.96;42.75;99255.25;4957379;29;20119;-81
2021/12/04 12:47:57;;;;;;;37.20;35.22;;;;;;;19.96;43.02;99258.81;4955250;29;20488;-82
2021/12/04 12:50:53;;;;;;;39.72;37.50;;;;;;;19.96;43.01;99247.84;4956780;29;20031;-80
2021/12/04 12:53:25;;;;;;;37.67;35.78;;;;;;;19.96;42.92;99250.59;4927832;29;20208;-81
2021/12/04 12:56:07;;;;;;;39.63;37.45;;;;;;;19.97;43.18;99251.38;4956275;29;20031;-83
2021/12/04 12:58:49;;;;;;;38.60;36.60;;;;;;;19.97;43.65;99248.66;4939412;29;20471;-81
2021/12/04 13:13:37;;;;;;;36.88;34.88;;;;;;;19.97;43.81;99241.22;4956515;29;20094;-80
2021/12/04 13:16:29;;;;;;;37.85;35.95;;;;;;;19.96;44.08;99245.09;4955033;29;20074;-81
2021/12/04 13:19:00;;;;;;;38.30;36.30;;;;;;;19.97;43.53;99243.97;4956778;29;20443;-81
2021/12/04 13:21:27;;;;;;;37.30;35.05;;;;;;;19.98;43.83;99244.75;4956400;29;20024;-82
2021/12/04 13:23:56;;;;;;;40.17;37.97;;;;;;;19.98;43.56;99234.59;4938840;29;20035;-81
2021/12/04 13:26:31;;;;;;;38.80;36.70;;;;;;;19.98;43.68;99234.59;4954706;28;20062;-81
2021/12/04 13:29:00;;;;;;;38.50;36.50;;;;;;;19.99;43.54;99238.16;4955730;29;20452;-83
2021/12/04 13:31:26;;;;;;;;;;;;;;;19.96;43.91;99233.31;4939332;29;20027;-81
2021/12/04 13:33:53;;;;;;;39.45;37.35;;;;;;;19.97;43.87;99238.47;4955845;29;20018;-81
2021/12/04 13:36:26;;;;;;;38.00;36.00;;;;;;;19.99;43.81;99235.41;4939091;29;20042;-81
2021/12/04 13:38:57;;;;;;;40.15;37.95;;;;;;;19.98;44.20;99231.88;4955066;29;20027;-81
2021/12/04 13:41:22;;;;;;;38.83;36.83;;;;;;;19.99;44.22;99238.94;4955562;29;20043;-81
2021/12/04 13:43:55;;;;;;;39.72;37.65;;;;;;;20.00;44.24;99237.00;4955069;29;20024;-80
2021/12/04 13:46:21;;;;;;;38.50;36.40;;;;;;;19.99;44.29;99236.19;4938473;29;20460;-81
2021/12/04 13:48:48;;;;;;;39.42;37.33;;;;;;;20.01;44.26;99233.13;4954131;29;20070;-80
2021/12/04 13:51:14;;;;;;;36.50;34.70;;;;;;;20.00;44.01;99232.31;4955345;28;20536;-81
2021/12/04 13:53:43;;;;;;;37.10;35.17;;;;;;;20.01;44.37;99233.91;4955490;29;20081;-81
2021/12/04 13:56:13;;;;;;;36.58;34.75;;;;;;;20.02;44.21;99237.44;4938250;29;20110;-81
2021/12/04 13:58:52;;;;;;;37.60;35.60;;;;;;;20.02;44.43;99243.72;4955054;28;20023;-81
2021/12/04 14:01:18;;;;;;;37.67;35.50;;;;;;;20.03;44.56;99256.31;4954074;29;20483;-81
2021/12/04 14:03:45;;;;;;;37.75;35.85;;;;;;;20.03;44.37;99256.31;4937849;29;20039;-81
2021/12/04 14:06:16;;;;;;;36.83;34.92;;;;;;;20.04;44.26;99246.13;4938457;29;20035;-80
2021/12/04 14:08:42;;;;;;;37.08;35.05;;;;;;;20.04;44.52;99246.94;4955006;28;20396;-80
2021/12/04 14:11:08;;;;;;;37.65;35.83;;;;;;;20.04;44.44;99252.41;4954136;28;20382;-81
2021/12/04 14:13:37;;;;;;;38.58;36.58;;;;;;;20.04;44.12;99259.84;4955203;29;20452;-81
2021/12/04 14:16:03;;;;;;;37.97;35.97;;;;;;;20.05;44.21;99262.22;4955491;28;20031;-81
2021/12/04 14:18:29;;;;;;;36.03;34.22;;;;;;;20.06;44.29;99266.59;4955125;28;20035;-81
2021/12/04 14:21:00;;;;;;;39.13;36.83;;;;;;;20.05;44.55;99272.41;4938122;29;20027;-81
2021/12/04 14:23:27;;;;;;;37.00;35.08;;;;;;;20.06;44.47;99268.53;4953555;29;20027;-81
2021/12/04 14:25:56;;;;;;;38.72;36.63;;;;;;;20.06;44.44;99276.75;4954973;29;20035;-82
2021/12/04 14:28:32;;;;;;;37.38;35.47;;;;;;;20.06;44.18;99269.31;4938913;29;20036;-81
2021/12/04 14:30:58;;;;;;;39.72;37.47;;;;;;;20.06;44.49;99280.28;4955251;29;20035;-81
2021/12/04 14:33:26;;;;;;;36.60;34.70;;;;;;;20.06;44.67;99290.47;4953670;29;20039;-81
2021/12/04 14:35:53;;;;;;;38.63;36.40;;;;;;;20.07;44.40;99286.56;4954972;29;20073;-82
2021/12/04 14:38:27;;;;;;;37.05;35.05;;;;;;;20.07;44.31;99303.00;4957144;28;20035;-82